sensor_id;sensor_type;location;lat;lon;timestamp;pressure;altitude;pressure_sealevel;temperature;humidity
73457;BME280;61691;53.072;6.582;2023-04-03T00:00:50;103260.44;;;3.11;58.25
73457;BME280;61691;53.072;6.582;2023-04-03T00:03:18;103260.56;;;3.05;58.19
73457;BME280;61691;53.072;6.582;2023-04-03T00:05:46;103258.91;;;2.99;58.53
73457;BME280;61691;53.072;6.582;2023-04-03T00:08:13;103240.78;;;2.86;58.25
73457;BME280;61691;53.072;6.582;2023-04-03T00:10:40;103224.41;;;2.75;58.57
73457;BME280;61691;53.072;6.582;2023-04-03T00:13:07;103248.59;;;2.89;58.53
73457;BME280;61691;53.072;6.582;2023-04-03T00:15:35;103268.66;;;2.91;58.46
73457;BME280;61691;53.072;6.582;2023-04-03T00:18:03;103238.47;;;2.70;58.58
73457;BME280;61691;53.072;6.582;2023-04-03T00:20:30;103213.34;;;2.57;58.34
73457;BME280;61691;53.072;6.582;2023-04-03T00:22:57;103267.06;;;2.81;58.47
73457;BME280;61691;53.072;6.582;2023-04-03T00:25:24;103265.34;;;2.80;58.44
73457;BME280;61691;53.072;6.582;2023-04-03T00:27:51;103233.38;;;2.61;58.41
73457;BME280;61691;53.072;6.582;2023-04-03T00:30:19;103236.16;;;2.51;58.81
73457;BME280;61691;53.072;6.582;2023-04-03T00:32:48;103250.88;;;2.56;58.96
73457;BME280;61691;53.072;6.582;2023-04-03T00:35:15;103237.13;;;2.45;58.86
73457;BME280;61691;53.072;6.582;2023-04-03T00:37:43;103239.66;;;2.48;59.03
73457;BME280;61691;53.072;6.582;2023-04-03T00:40:12;103272.66;;;2.61;59.47
73457;BME280;61691;53.072;6.582;2023-04-03T00:42:43;103275.25;;;2.61;59.32
73457;BME280;61691;53.072;6.582;2023-04-03T00:47:38;103256.28;;;2.47;59.22
73457;BME280;61691;53.072;6.582;2023-04-03T00:50:07;103241.59;;;2.37;59.45
73457;BME280;61691;53.072;6.582;2023-04-03T00:52:34;103258.94;;;2.46;59.54
73457;BME280;61691;53.072;6.582;2023-04-03T00:55:04;103282.31;;;2.56;59.49
73457;BME280;61691;53.072;6.582;2023-04-03T00:57:32;103270.19;;;2.49;59.21
73457;BME280;61691;53.072;6.582;2023-04-03T01:00:03;103246.91;;;2.32;59.95
73457;BME280;61691;53.072;6.582;2023-04-03T01:02:33;103250.44;;;2.30;59.57
73457;BME280;61691;53.072;6.582;2023-04-03T01:05:00;103195.19;;;1.90;59.65
73457;BME280;61691;53.072;6.582;2023-04-03T01:07:29;103273.03;;;2.34;59.60
73457;BME280;61691;53.072;6.582;2023-04-03T01:09:59;103288.69;;;2.39;60.13
73457;BME280;61691;53.072;6.582;2023-04-03T01:12:46;103287.88;;;2.35;60.15
73457;BME280;61691;53.072;6.582;2023-04-03T01:15:21;103287.94;;;2.32;60.30
73457;BME280;61691;53.072;6.582;2023-04-03T01:17:52;103285.38;;;2.26;60.21
73457;BME280;61691;53.072;6.582;2023-04-03T01:25:52;103295.09;;;2.18;60.87
73457;BME280;61691;53.072;6.582;2023-04-03T01:28:22;103265.63;;;2.04;61.18
73457;BME280;61691;53.072;6.582;2023-04-03T01:31:28;103292.53;;;2.15;61.02
73457;BME280;61691;53.072;6.582;2023-04-03T01:33:56;103275.22;;;2.03;61.21
73457;BME280;61691;53.072;6.582;2023-04-03T01:36:29;103289.94;;;2.12;61.42
73457;BME280;61691;53.072;6.582;2023-04-03T01:38:57;103294.28;;;2.13;61.58
73457;BME280;61691;53.072;6.582;2023-04-03T01:41:25;103271.00;;;1.94;61.68
73457;BME280;61691;53.072;6.582;2023-04-03T01:43:52;103284.84;;;2.03;61.52
73457;BME280;61691;53.072;6.582;2023-04-03T01:46:18;103268.38;;;1.94;61.71
73457;BME280;61691;53.072;6.582;2023-04-03T01:48:47;103281.41;;;1.98;61.85
73457;BME280;61691;53.072;6.582;2023-04-03T01:51:14;103278.84;;;1.94;62.09
73457;BME280;61691;53.072;6.582;2023-04-03T01:53:41;103282.34;;;1.95;62.34
73457;BME280;61691;53.072;6.582;2023-04-03T01:56:08;103272.78;;;1.89;62.35
73457;BME280;61691;53.072;6.582;2023-04-03T01:58:35;103285.84;;;1.91;62.91
73457;BME280;61691;53.072;6.582;2023-04-03T02:01:02;103280.69;;;1.88;62.92
73457;BME280;61691;53.072;6.582;2023-04-03T02:03:29;103290.19;;;1.93;63.19
73457;BME280;61691;53.072;6.582;2023-04-03T02:05:56;103286.81;;;1.82;63.18
73457;BME280;61691;53.072;6.582;2023-04-03T02:08:23;103282.53;;;1.77;63.27
73457;BME280;61691;53.072;6.582;2023-04-03T02:10:50;103271.31;;;1.67;63.34
73457;BME280;61691;53.072;6.582;2023-04-03T02:13:18;103302.53;;;1.82;63.24
73457;BME280;61691;53.072;6.582;2023-04-03T02:15:45;103296.50;;;1.77;63.42
73457;BME280;61691;53.072;6.582;2023-04-03T02:18:12;103277.50;;;1.62;63.36
73457;BME280;61691;53.072;6.582;2023-04-03T02:20:38;103287.88;;;1.69;63.23
73457;BME280;61691;53.072;6.582;2023-04-03T02:23:05;103237.75;;;1.35;63.84
73457;BME280;61691;53.072;6.582;2023-04-03T02:25:32;103322.63;;;1.79;63.88
73457;BME280;61691;53.072;6.582;2023-04-03T02:28:02;103317.47;;;1.73;64.17
73457;BME280;61691;53.072;6.582;2023-04-03T02:30:28;103328.75;;;1.76;64.05
73457;BME280;61691;53.072;6.582;2023-04-03T02:32:55;103313.13;;;1.70;64.07
73457;BME280;61691;53.072;6.582;2023-04-03T02:35:22;103303.66;;;1.59;64.16
73457;BME280;61691;53.072;6.582;2023-04-03T02:37:49;103281.25;;;1.36;64.56
73457;BME280;61691;53.072;6.582;2023-04-03T02:40:15;103212.03;;;0.93;64.27
73457;BME280;61691;53.072;6.582;2023-04-03T02:42:42;103301.28;;;1.39;64.46
73457;BME280;61691;53.072;6.582;2023-04-03T02:45:09;103334.13;;;1.63;64.47
73457;BME280;61691;53.072;6.582;2023-04-03T02:47:36;103337.63;;;1.60;65.03
73457;BME280;61691;53.072;6.582;2023-04-03T02:50:03;103288.28;;;1.33;64.87
73457;BME280;61691;53.072;6.582;2023-04-03T02:52:30;103344.63;;;1.58;64.95
73457;BME280;61691;53.072;6.582;2023-04-03T02:54:57;103338.56;;;1.56;65.12
73457;BME280;61691;53.072;6.582;2023-04-03T02:57:23;103327.34;;;1.45;65.16
73457;BME280;61691;53.072;6.582;2023-04-03T02:59:50;103287.50;;;1.23;65.08
73457;BME280;61691;53.072;6.582;2023-04-03T03:02:17;103324.72;;;1.43;65.22
73457;BME280;61691;53.072;6.582;2023-04-03T03:04:43;103320.44;;;1.41;65.24
73457;BME280;61691;53.072;6.582;2023-04-03T03:07:10;103330.81;;;1.47;65.54
73457;BME280;61691;53.072;6.582;2023-04-03T03:09:37;103311.81;;;1.30;65.82
73457;BME280;61691;53.072;6.582;2023-04-03T03:12:03;103331.75;;;1.41;65.66
73457;BME280;61691;53.072;6.582;2023-04-03T03:14:30;103324.81;;;1.37;65.97
73457;BME280;61691;53.072;6.582;2023-04-03T03:16:57;103311.81;;;1.30;66.13
73457;BME280;61691;53.072;6.582;2023-04-03T03:19:23;103312.66;;;1.35;66.03
73457;BME280;61691;53.072;6.582;2023-04-03T03:21:50;103336.06;;;1.44;66.12
73457;BME280;61691;53.072;6.582;2023-04-03T03:24:18;103330.91;;;1.38;65.88
73457;BME280;61691;53.072;6.582;2023-04-03T03:26:45;103313.59;;;1.25;66.03
73457;BME280;61691;53.072;6.582;2023-04-03T03:29:11;103319.69;;;1.27;65.90
73457;BME280;61691;53.072;6.582;2023-04-03T03:31:38;103334.44;;;1.31;66.22
73457;BME280;61691;53.072;6.582;2023-04-03T03:34:05;103304.97;;;1.16;66.01
73457;BME280;61691;53.072;6.582;2023-04-03T03:36:32;103340.47;;;1.37;66.44
73457;BME280;61691;53.072;6.582;2023-04-03T03:38:58;103304.97;;;1.16;66.15
73457;BME280;61691;53.072;6.582;2023-04-03T03:41:25;103334.44;;;1.31;66.88
73457;BME280;61691;53.072;6.582;2023-04-03T03:43:52;103348.38;;;1.30;66.45
73457;BME280;61691;53.072;6.582;2023-04-03T03:46:19;103350.19;;;1.23;66.31
73457;BME280;61691;53.072;6.582;2023-04-03T03:48:45;103261.91;;;0.64;66.59
73457;BME280;61691;53.072;6.582;2023-04-03T03:51:12;103348.56;;;1.11;66.81
73457;BME280;61691;53.072;6.582;2023-04-03T03:53:39;103329.56;;;0.91;67.38
73457;BME280;61691;53.072;6.582;2023-04-03T03:56:05;103351.25;;;1.01;67.82
73457;BME280;61691;53.072;6.582;2023-04-03T03:58:33;103344.34;;;0.91;67.74
73457;BME280;61691;53.072;6.582;2023-04-03T04:01:03;103357.44;;;0.89;68.59
73457;BME280;61691;53.072;6.582;2023-04-03T04:03:32;103358.31;;;0.88;67.82
73457;BME280;61691;53.072;6.582;2023-04-03T04:05:59;103349.63;;;0.86;67.87
73457;BME280;61691;53.072;6.582;2023-04-03T04:08:26;103309.81;;;0.57;68.27
73457;BME280;61691;53.072;6.582;2023-04-03T04:10:53;103269.13;;;0.28;67.95
73457;BME280;61691;53.072;6.582;2023-04-03T04:13:20;103345.44;;;0.64;68.27
73457;BME280;61691;53.072;6.582;2023-04-03T04:15:47;103365.41;;;0.72;68.62
73457;BME280;61691;53.072;6.582;2023-04-03T04:18:14;103335.91;;;0.54;69.34
73457;BME280;61691;53.072;6.582;2023-04-03T04:20:41;103377.56;;;0.72;69.21
73457;BME280;61691;53.072;6.582;2023-04-03T04:23:08;103364.56;;;0.63;69.11
73457;BME280;61691;53.072;6.582;2023-04-03T04:25:34;103346.41;;;0.49;69.16
73457;BME280;61691;53.072;6.582;2023-04-03T04:28:01;103375.00;;;0.63;69.28
73457;BME280;61691;53.072;6.582;2023-04-03T04:30:28;103359.41;;;0.54;69.39
73457;BME280;61691;53.072;6.582;2023-04-03T04:32:55;103355.97;;;0.52;69.17
73457;BME280;61691;53.072;6.582;2023-04-03T04:35:22;103379.38;;;0.62;69.27
73457;BME280;61691;53.072;6.582;2023-04-03T04:37:48;103386.31;;;0.63;69.27
73457;BME280;61691;53.072;6.582;2023-04-03T04:40:15;103324.75;;;0.30;69.26
73457;BME280;61691;53.072;6.582;2023-04-03T04:42:42;103375.00;;;0.63;69.30
73457;BME280;61691;53.072;6.582;2023-04-03T04:45:09;103365.50;;;0.56;69.53
73457;BME280;61691;53.072;6.582;2023-04-03T04:47:35;103380.25;;;0.63;69.33
73457;BME280;61691;53.072;6.582;2023-04-03T04:50:02;103374.19;;;0.56;69.37
73457;BME280;61691;53.072;6.582;2023-04-03T04:52:29;103291.00;;;0.06;69.61
73457;BME280;61691;53.072;6.582;2023-04-03T04:54:56;103347.31;;;0.41;69.34
73457;BME280;61691;53.072;6.582;2023-04-03T04:57:23;103382.94;;;0.52;69.97
73457;BME280;61691;53.072;6.582;2023-04-03T04:59:49;103379.50;;;0.44;69.58
73457;BME280;61691;53.072;6.582;2023-04-03T05:02:16;103398.59;;;0.51;69.90
73457;BME280;61691;53.072;6.582;2023-04-03T05:04:43;103390.78;;;0.45;69.69
73457;BME280;61691;53.072;6.582;2023-04-03T05:07:10;103389.94;;;0.44;69.92
73457;BME280;61691;53.072;6.582;2023-04-03T05:09:37;103373.44;;;0.31;69.96
73457;BME280;61691;53.072;6.582;2023-04-03T05:12:04;103363.88;;;0.33;70.21
73457;BME280;61691;53.072;6.582;2023-04-03T05:14:31;103395.06;;;0.53;70.39
73457;BME280;61691;53.072;6.582;2023-04-03T05:16:57;103416.78;;;0.63;70.16
73457;BME280;61691;53.072;6.582;2023-04-03T05:19:24;103414.16;;;0.64;70.28
73457;BME280;61691;53.072;6.582;2023-04-03T05:21:51;103390.72;;;0.54;70.24
73457;BME280;61691;53.072;6.582;2023-04-03T05:24:18;103350.00;;;0.30;70.51
73457;BME280;61691;53.072;6.582;2023-04-03T05:26:44;103383.78;;;0.48;70.27
73457;BME280;61691;53.072;6.582;2023-04-03T05:29:12;103371.66;;;0.39;70.22
73457;BME280;61691;53.072;6.582;2023-04-03T05:31:38;103372.53;;;0.43;70.59
73457;BME280;61691;53.072;6.582;2023-04-03T05:34:05;103384.66;;;0.50;70.09
73457;BME280;61691;53.072;6.582;2023-04-03T05:36:32;103405.47;;;0.65;70.13
73457;BME280;61691;53.072;6.582;2023-04-03T05:38:59;103413.28;;;0.64;70.33
73457;BME280;61691;53.072;6.582;2023-04-03T05:41:26;103384.63;;;0.53;70.44
73457;BME280;61691;53.072;6.582;2023-04-03T05:43:52;103404.59;;;0.65;70.58
73457;BME280;61691;53.072;6.582;2023-04-03T05:46:19;103389.84;;;0.56;70.56
73457;BME280;61691;53.072;6.582;2023-04-03T05:48:47;103402.78;;;0.76;70.89
73457;BME280;61691;53.072;6.582;2023-04-03T05:51:17;103416.66;;;0.87;70.69
73457;BME280;61691;53.072;6.582;2023-04-03T05:53:45;103421.00;;;0.84;70.43
73457;BME280;61691;53.072;6.582;2023-04-03T05:56:13;103437.50;;;0.93;70.63
73457;BME280;61691;53.072;6.582;2023-04-03T05:58:40;103421.81;;;0.93;70.77
73457;BME280;61691;53.072;6.582;2023-04-03T06:01:07;103425.25;;;0.98;71.00
73457;BME280;61691;53.072;6.582;2023-04-03T06:03:34;103431.41;;;0.96;70.74
73457;BME280;61691;53.072;6.582;2023-04-03T06:06:04;103446.09;;;1.09;70.60
73457;BME280;61691;53.072;6.582;2023-04-03T06:08:31;103421.78;;;1.02;70.67
73457;BME280;61691;53.072;6.582;2023-04-03T06:10:59;103405.28;;;0.96;70.94
73457;BME280;61691;53.072;6.582;2023-04-03T06:13:26;103442.50;;;1.22;70.74
73457;BME280;61691;53.072;6.582;2023-04-03T06:15:53;103444.19;;;1.31;70.79
73457;BME280;61691;53.072;6.582;2023-04-03T06:18:19;103432.00;;;1.33;70.77
73457;BME280;61691;53.072;6.582;2023-04-03T06:20:46;103374.72;;;1.05;70.99
73457;BME280;61691;53.072;6.582;2023-04-03T06:23:13;103451.84;;;1.53;70.99
73457;BME280;61691;53.072;6.582;2023-04-03T06:25:40;103410.22;;;1.35;70.99
73457;BME280;61691;53.072;6.582;2023-04-03T06:28:08;103449.16;;;1.63;70.59
73457;BME280;61691;53.072;6.582;2023-04-03T06:30:36;103457.00;;;1.64;70.45
73457;BME280;61691;53.072;6.582;2023-04-03T06:33:04;103446.56;;;1.61;70.54
73457;BME280;61691;53.072;6.582;2023-04-03T06:35:31;103445.63;;;1.68;70.21
73457;BME280;61691;53.072;6.582;2023-04-03T06:37:58;103438.72;;;1.63;70.66
73457;BME280;61691;53.072;6.582;2023-04-03T06:40:25;103466.47;;;1.79;70.20
73457;BME280;61691;53.072;6.582;2023-04-03T06:42:52;103381.47;;;1.34;70.12
73457;BME280;61691;53.072;6.582;2023-04-03T06:45:19;103448.16;;;1.77;70.28
73457;BME280;61691;53.072;6.582;2023-04-03T06:47:46;103459.38;;;1.88;70.16
73457;BME280;61691;53.072;6.582;2023-04-03T06:50:13;103474.97;;;1.98;70.33
73457;BME280;61691;53.072;6.582;2023-04-03T06:52:41;103474.13;;;1.95;69.68
73457;BME280;61691;53.072;6.582;2023-04-03T06:55:09;103448.97;;;1.82;69.63
73457;BME280;61691;53.072;6.582;2023-04-03T06:57:36;103481.88;;;2.05;69.69
73457;BME280;61691;53.072;6.582;2023-04-03T07:00:05;103435.09;;;1.74;69.54
73457;BME280;61691;53.072;6.582;2023-04-03T07:02:32;103472.34;;;1.99;69.71
73457;BME280;61691;53.072;6.582;2023-04-03T07:04:59;103486.94;;;2.23;70.14
73457;BME280;61691;53.072;6.582;2023-04-03T07:07:26;103483.38;;;2.30;69.50
73457;BME280;61691;53.072;6.582;2023-04-03T07:09:53;103495.16;;;2.66;70.28
73457;BME280;61691;53.072;6.582;2023-04-03T07:12:20;103465.72;;;3.10;68.97
73457;BME280;61691;53.072;6.582;2023-04-03T07:14:47;103465.56;;;3.76;67.78
73457;BME280;61691;53.072;6.582;2023-04-03T07:17:13;103496.09;;;4.72;67.19
73457;BME280;61691;53.072;6.582;2023-04-03T07:19:40;103506.84;;;5.75;61.26
73457;BME280;61691;53.072;6.582;2023-04-03T07:22:07;103504.28;;;6.70;65.21
73457;BME280;61691;53.072;6.582;2023-04-03T07:24:34;103511.28;;;7.82;63.81
73457;BME280;61691;53.072;6.582;2023-04-03T07:27:01;103503.34;;;8.58;60.01
73457;BME280;61691;53.072;6.582;2023-04-03T07:29:29;103478.44;;;9.32;59.63
73457;BME280;61691;53.072;6.582;2023-04-03T07:31:56;103495.19;;;10.15;57.92
73457;BME280;61691;53.072;6.582;2023-04-03T07:34:24;103493.25;;;10.20;54.95
73457;BME280;61691;53.072;6.582;2023-04-03T07:36:50;103504.69;;;9.58;52.15
73457;BME280;61691;53.072;6.582;2023-04-03T07:39:17;103483.47;;;8.71;52.08
73457;BME280;61691;53.072;6.582;2023-04-03T07:41:44;103490.06;;;7.85;51.12
73457;BME280;61691;53.072;6.582;2023-04-03T07:44:11;103485.47;;;7.11;51.90
73457;BME280;61691;53.072;6.582;2023-04-03T07:46:37;103503.13;;;6.80;52.60
73457;BME280;61691;53.072;6.582;2023-04-03T07:49:05;103524.91;;;6.55;52.88
73457;BME280;61691;53.072;6.582;2023-04-03T07:51:31;103507.41;;;6.22;53.11
73457;BME280;61691;53.072;6.582;2023-04-03T07:53:58;103516.78;;;6.00;53.47
73457;BME280;61691;53.072;6.582;2023-04-03T07:56:25;103516.34;;;5.81;53.89
73457;BME280;61691;53.072;6.582;2023-04-03T07:58:52;103519.31;;;5.67;53.43
73457;BME280;61691;53.072;6.582;2023-04-03T08:01:18;103527.56;;;5.52;53.85
73457;BME280;61691;53.072;6.582;2023-04-03T08:03:45;103487.25;;;5.15;54.24
73457;BME280;61691;53.072;6.582;2023-04-03T08:06:13;103522.53;;;5.04;54.70
73457;BME280;61691;53.072;6.582;2023-04-03T08:08:43;103521.00;;;4.94;55.00
73457;BME280;61691;53.072;6.582;2023-04-03T08:11:11;103527.88;;;5.01;55.75
73457;BME280;61691;53.072;6.582;2023-04-03T08:13:38;103527.88;;;5.01;56.20
73457;BME280;61691;53.072;6.582;2023-04-03T08:16:18;103521.97;;;4.90;55.75
73457;BME280;61691;53.072;6.582;2023-04-03T08:18:47;103502.09;;;4.77;55.65
73457;BME280;61691;53.072;6.582;2023-04-03T08:21:14;103517.84;;;4.79;56.27
73457;BME280;61691;53.072;6.582;2023-04-03T08:23:41;103520.94;;;4.97;55.58
73457;BME280;61691;53.072;6.582;2023-04-03T08:26:16;103532.28;;;4.99;55.48
73457;BME280;61691;53.072;6.582;2023-04-03T08:28:43;103522.69;;;4.97;55.83
73457;BME280;61691;53.072;6.582;2023-04-03T08:31:13;103524.34;;;5.02;55.70
73457;BME280;61691;53.072;6.582;2023-04-03T08:33:40;103529.59;;;5.02;55.27
73457;BME280;61691;53.072;6.582;2023-04-03T08:36:16;103517.34;;;5.01;55.84
73457;BME280;61691;53.072;6.582;2023-04-03T08:38:43;103517.00;;;5.17;55.67
73457;BME280;61691;53.072;6.582;2023-04-03T08:41:16;103518.59;;;5.24;55.22
73457;BME280;61691;53.072;6.582;2023-04-03T08:43:58;103528.16;;;5.26;54.90
73457;BME280;61691;53.072;6.582;2023-04-03T08:46:42;103528.91;;;5.33;53.46
73457;BME280;61691;53.072;6.582;2023-04-03T08:49:23;103482.00;;;5.15;53.48
73457;BME280;61691;53.072;6.582;2023-04-03T08:51:52;103504.41;;;5.31;53.57
73457;BME280;61691;53.072;6.582;2023-04-03T08:54:28;103498.97;;;5.38;53.81
73457;BME280;61691;53.072;6.582;2023-04-03T08:57:02;103495.50;;;5.36;52.70
73457;BME280;61691;53.072;6.582;2023-04-03T08:59:31;103517.19;;;5.48;51.84
73457;BME280;61691;53.072;6.582;2023-04-03T09:02:01;103497.88;;;5.47;52.85
73457;BME280;61691;53.072;6.582;2023-04-03T09:04:32;103515.94;;;5.62;52.04
73457;BME280;61691;53.072;6.582;2023-04-03T09:07:10;103516.69;;;5.67;51.25
73457;BME280;61691;53.072;6.582;2023-04-03T09:09:43;103503.69;;;5.61;51.70
73457;BME280;61691;53.072;6.582;2023-04-03T09:12:27;103500.06;;;5.65;52.14
73457;BME280;61691;53.072;6.582;2023-04-03T09:15:10;103515.31;;;5.87;50.92
73457;BME280;61691;53.072;6.582;2023-04-03T09:20:54;103513.38;;;5.95;48.18
73457;BME280;61691;53.072;6.582;2023-04-03T09:23:33;103512.91;;;6.13;50.61
73457;BME280;61691;53.072;6.582;2023-04-03T09:26:11;103490.06;;;6.13;50.32
73457;BME280;61691;53.072;6.582;2023-04-03T09:28:41;103513.88;;;6.41;49.91
73457;BME280;61691;53.072;6.582;2023-04-03T09:31:22;103509.16;;;6.54;47.63
73457;BME280;61691;53.072;6.582;2023-04-03T09:33:52;103504.66;;;6.57;49.01
73457;BME280;61691;53.072;6.582;2023-04-03T09:36:40;103454.13;;;6.43;46.56
73457;BME280;61691;53.072;6.582;2023-04-03T09:39:14;103492.72;;;6.75;47.55
73457;BME280;61691;53.072;6.582;2023-04-03T09:41:54;103461.53;;;6.60;47.04
73457;BME280;61691;53.072;6.582;2023-04-03T09:44:23;103460.56;;;6.63;46.49
73457;BME280;61691;53.072;6.582;2023-04-03T09:46:51;103493.03;;;6.94;46.92
73457;BME280;61691;53.072;6.582;2023-04-03T09:49:18;103485.06;;;6.95;46.11
73457;BME280;61691;53.072;6.582;2023-04-03T09:51:45;103461.66;;;6.85;44.36
73457;BME280;61691;53.072;6.582;2023-04-03T09:54:33;103487.03;;;6.89;41.26
73457;BME280;61691;53.072;6.582;2023-04-03T09:57:12;103493.03;;;6.94;42.88
73457;BME280;61691;53.072;6.582;2023-04-03T09:59:56;103498.22;;;6.97;41.65
73457;BME280;61691;53.072;6.582;2023-04-03T10:02:38;103489.28;;;7.01;42.65
73457;BME280;61691;53.072;6.582;2023-04-03T10:05:33;103473.66;;;6.95;39.13
73457;BME280;61691;53.072;6.582;2023-04-03T10:08:30;103490.06;;;7.05;40.24
73457;BME280;61691;53.072;6.582;2023-04-03T10:11:10;103486.41;;;7.09;40.81
73457;BME280;61691;53.072;6.582;2023-04-03T10:13:53;103467.31;;;7.00;40.27
73457;BME280;61691;53.072;6.582;2023-04-03T10:16:24;103443.66;;;6.99;39.68
73457;BME280;61691;53.072;6.582;2023-04-03T10:24:14;103475.88;;;7.36;39.90
73457;BME280;61691;53.072;6.582;2023-04-03T10:27:03;103469.81;;;7.33;38.90
73457;BME280;61691;53.072;6.582;2023-04-03T10:29:49;103484.63;;;7.37;38.03
73457;BME280;61691;53.072;6.582;2023-04-03T10:35:02;103481.31;;;7.30;38.65
73457;BME280;61691;53.072;6.582;2023-04-03T10:43:28;103463.59;;;7.35;38.85
73457;BME280;61691;53.072;6.582;2023-04-03T10:48:52;103440.34;;;7.47;37.75
73457;BME280;61691;53.072;6.582;2023-04-03T10:54:10;103460.13;;;7.60;37.15
73457;BME280;61691;53.072;6.582;2023-04-03T10:56:43;103423.88;;;7.38;36.75
73457;BME280;61691;53.072;6.582;2023-04-03T11:01:44;103448.44;;;7.67;35.94
73457;BME280;61691;53.072;6.582;2023-04-03T11:04:12;103461.84;;;7.87;37.25
73457;BME280;61691;53.072;6.582;2023-04-03T11:11:46;103437.25;;;7.85;35.78
73457;BME280;61691;53.072;6.582;2023-04-03T11:14:26;103393.59;;;7.50;36.55
73457;BME280;61691;53.072;6.582;2023-04-03T11:17:05;103448.13;;;7.76;35.91
73457;BME280;61691;53.072;6.582;2023-04-03T11:19:44;103431.75;;;7.66;36.15
73457;BME280;61691;53.072;6.582;2023-04-03T11:22:39;103443.84;;;7.73;35.90
73457;BME280;61691;53.072;6.582;2023-04-03T11:27:55;103431.22;;;7.82;37.07
73457;BME280;61691;53.072;6.582;2023-04-03T11:30:31;103436.72;;;8.00;36.40
73457;BME280;61691;53.072;6.582;2023-04-03T11:36:02;103417.31;;;8.01;35.79
73457;BME280;61691;53.072;6.582;2023-04-03T11:38:46;103405.13;;;7.97;35.43
73457;BME280;61691;53.072;6.582;2023-04-03T11:41:14;103416.34;;;8.04;36.17
73457;BME280;61691;53.072;6.582;2023-04-03T11:43:56;103364.28;;;7.83;34.72
73457;BME280;61691;53.072;6.582;2023-04-03T11:46:50;103401.56;;;7.98;34.08
73457;BME280;61691;53.072;6.582;2023-04-03T11:58:13;103404.19;;;7.98;33.97
73457;BME280;61691;53.072;6.582;2023-04-03T12:16:06;103374.25;;;8.23;34.96
73457;BME280;61691;53.072;6.582;2023-04-03T12:24:04;103362.31;;;8.36;34.63
73457;BME280;61691;53.072;6.582;2023-04-03T12:26:38;103322.38;;;8.20;34.76
73457;BME280;61691;53.072;6.582;2023-04-03T12:29:36;103344.16;;;8.27;35.38
73457;BME280;61691;53.072;6.582;2023-04-03T12:44:25;103355.28;;;8.58;33.40
73457;BME280;61691;53.072;6.582;2023-04-03T12:46:28;103350.38;;;8.49;33.93
73457;BME280;61691;53.072;6.582;2023-04-03T12:49:00;103353.81;;;8.51;33.90
73457;BME280;61691;53.072;6.582;2023-04-03T12:51:41;103355.28;;;8.58;34.86
73457;BME280;61691;53.072;6.582;2023-04-03T12:56:47;103342.88;;;8.60;34.24
73457;BME280;61691;53.072;6.582;2023-04-03T12:59:18;103344.59;;;8.61;33.48
73457;BME280;61691;53.072;6.582;2023-04-03T13:01:54;103336.78;;;8.58;34.36
73457;BME280;61691;53.072;6.582;2023-04-03T13:04:22;103335.84;;;8.59;34.66
73457;BME280;61691;53.072;6.582;2023-04-03T13:06:49;103327.00;;;8.60;34.57
73457;BME280;61691;53.072;6.582;2023-04-03T13:09:29;103329.69;;;8.59;34.54
73457;BME280;61691;53.072;6.582;2023-04-03T13:12:03;103322.78;;;8.56;34.37
73457;BME280;61691;53.072;6.582;2023-04-03T13:14:37;103323.56;;;8.58;34.76
73457;BME280;61691;53.072;6.582;2023-04-03T13:17:11;103299.66;;;8.61;34.53
73457;BME280;61691;53.072;6.582;2023-04-03T13:19:41;103322.47;;;8.64;35.07
73457;BME280;61691;53.072;6.582;2023-04-03T13:22:26;103303.25;;;8.59;33.85
73457;BME280;61691;53.072;6.582;2023-04-03T13:24:54;103316.44;;;8.60;34.72
73457;BME280;61691;53.072;6.582;2023-04-03T13:27:23;103283.47;;;8.47;34.57
73457;BME280;61691;53.072;6.582;2023-04-03T13:29:53;103295.38;;;8.57;33.88
73457;BME280;61691;53.072;6.582;2023-04-03T13:32:23;103304.03;;;8.62;34.50
73457;BME280;61691;53.072;6.582;2023-04-03T13:34:50;103307.16;;;8.72;34.64
73457;BME280;61691;53.072;6.582;2023-04-03T13:37:23;103304.53;;;8.72;34.50
73457;BME280;61691;53.072;6.582;2023-04-03T13:42:35;103303.50;;;8.74;34.07
73457;BME280;61691;53.072;6.582;2023-04-03T13:45:29;103301.66;;;8.76;34.44
73457;BME280;61691;53.072;6.582;2023-04-03T13:48:16;103304.97;;;8.81;34.88
73457;BME280;61691;53.072;6.582;2023-04-03T13:51:02;103270.06;;;8.73;34.60
73457;BME280;61691;53.072;6.582;2023-04-03T13:53:31;103300.38;;;8.86;33.59
73457;BME280;61691;53.072;6.582;2023-04-03T13:56:05;103290.84;;;8.82;33.66
73457;BME280;61691;53.072;6.582;2023-04-03T13:58:33;103228.44;;;8.35;34.02
73457;BME280;61691;53.072;6.582;2023-04-03T14:01:19;103287.09;;;8.66;34.10
73457;BME280;61691;53.072;6.582;2023-04-03T14:03:56;103254.03;;;8.56;34.48
73457;BME280;61691;53.072;6.582;2023-04-03T14:06:24;103221.28;;;8.38;34.12
73457;BME280;61691;53.072;6.582;2023-04-03T14:08:51;103242.78;;;8.51;34.61
73457;BME280;61691;53.072;6.582;2023-04-03T14:11:21;103240.94;;;8.53;34.63
73457;BME280;61691;53.072;6.582;2023-04-03T14:13:49;103284.63;;;8.83;34.71
73457;BME280;61691;53.072;6.582;2023-04-03T14:16:23;103289.84;;;8.85;33.40
73457;BME280;61691;53.072;6.582;2023-04-03T14:18:52;103286.63;;;8.78;33.38
73457;BME280;61691;53.072;6.582;2023-04-03T14:21:20;103289.97;;;8.82;34.39
73457;BME280;61691;53.072;6.582;2023-04-03T14:23:48;103273.38;;;8.78;34.06
73457;BME280;61691;53.072;6.582;2023-04-03T14:26:18;103162.97;;;8.20;34.28
73457;BME280;61691;53.072;6.582;2023-04-03T14:28:49;103196.25;;;8.47;35.12
73457;BME280;61691;53.072;6.582;2023-04-03T14:31:18;103230.66;;;8.67;34.20
73457;BME280;61691;53.072;6.582;2023-04-03T14:33:45;103229.72;;;8.68;34.90
73457;BME280;61691;53.072;6.582;2023-04-03T14:36:21;103237.06;;;8.82;34.52
73457;BME280;61691;53.072;6.582;2023-04-03T14:38:49;103272.47;;;9.00;34.84
73457;BME280;61691;53.072;6.582;2023-04-03T14:41:18;103253.53;;;8.88;34.48
73457;BME280;61691;53.072;6.582;2023-04-03T14:43:47;103265.00;;;8.89;35.12
73457;BME280;61691;53.072;6.582;2023-04-03T14:46:25;103260.44;;;8.92;36.00